Home > Products > Valid Products > MTR

000
SAUS45 KPIH 280452
MTRSNT
METAR KSNT 280451Z AUTO 17003KT 02/01 A3030 RMK AO1 SLP212 T00220011





000
SAUS45 KPIH 280352
MTRSNT
METAR KSNT 280351Z AUTO 00000KT 05/03 A3028 RMK AO1 SLP202 T00500033





000
SAUS45 KPIH 280252
MTRSNT
METAR KSNT 280251Z AUTO 00000KT 06/04 A3025 RMK AO1 SLP195 P0002
60008 T00610044 51021





000
SAUS45 KPIH 280152
MTRSNT
METAR KSNT 280151Z AUTO 23004KT 07/04 A3022 RMK AO1 SLP184 T00720044





000
SAUS45 KPIH 280052
MTRSNT
METAR KSNT 280051Z AUTO 00000KT 08/04 A3021 RMK AO1 SLP177 P0006
T00780039





000
SAUS45 KPIH 280052
MTRSNT
METAR KSNT 280051Z AUTO 00000KT 08/04 A3021 RMK AO1 SLP177 P0006
T00780039





000
SAUS45 KPIH 272353
MTRSNT
METAR KSNT 272351Z AUTO 25003KT 08/03 A3018 RMK AO1 SLP162 P0002
60011 T00780033 10139 20067 53015





000
SAUS45 KPIH 272252
MTRSNT
METAR KSNT 272251Z AUTO 02008KT 09/02 A3016 RMK AO1 SLP145 T00940017





000
SAUS45 KPIH 272152
MTRSNT
METAR KSNT 272151Z AUTO 28013G22KT 14/01 A3012 RMK AO1 SLP121
T01390006





000
SAUS45 KPIH 272152
MTRSNT
METAR KSNT 272151Z AUTO 28013G22KT 14/01 A3012 RMK AO1 SLP121
T01390006





000
SAUS45 KPIH 272052
MTRSNT
METAR KSNT 272051Z AUTO 02009KT 11/03 A3012 RMK AO1 SLP128 60009
T01110033 53009





000
SAUS45 KPIH 271952
MTRSNT
METAR KSNT 271951Z AUTO VRB04KT 11/04 A3011 RMK AO1 SLP122 P0002
T01060044





000
SAUS45 KPIH 271952
MTRSNT
METAR KSNT 271951Z AUTO VRB04KT 11/04 A3011 RMK AO1 SLP122 P0002
T01060044





000
SAUS45 KPIH 271852
MTRSNT
METAR KSNT 271851Z AUTO VRB04KT 09/06 A3011 RMK AO1 SLP124 P0007
T00940061





000
SAUS45 KPIH 271752
MTRSNT
METAR KSNT 271751Z AUTO 33012G19KT 07/04 A3009 RMK AO1 PK WND
36027/1735 PRESRR SLP118 60003 T00720039 10122 20067 53012





000
SAUS45 KPIH 271652
MTRSNT
METAR KSNT 271651Z AUTO 00000KT 11/05 A3004 RMK AO1 SLP089 T01110050





000
SAUS45 KPIH 271552
MTRSNT
METAR KSNT 271551Z AUTO 36003KT 09/05 A3004 RMK AO1 SLP093 T00940050





000
SAUS45 KPIH 271452
MTRSNT
METAR KSNT 271451Z AUTO 00000KT 08/06 A3005 RMK AO1 SLP093 60003
T00780056 53002





000
SAUS45 KPIH 271452
MTRSNT
METAR KSNT 271451Z AUTO 00000KT 08/06 A3005 RMK AO1 SLP093 60003
T00780056 53002





000
SAUS45 KPIH 271352
MTRSNT
METAR KSNT 271351Z AUTO 00000KT 07/05 A3004 RMK AO1 SLP089 T00720050





000
SAUS45 KPIH 271252
MTRSNT
METAR KSNT 271251Z AUTO 00000KT 07/05 A3002 RMK AO1 SLP080 P0003
T00720050





000
SAUS45 KPIH 271252
MTRSNT
METAR KSNT 271251Z AUTO 00000KT 07/05 A3002 RMK AO1 SLP080 P0003
T00720050





000
SAUS45 KPIH 271152
MTRSNT
METAR KSNT 271151Z AUTO 34008KT 08/06 A3004 RMK AO1 SLP080 P0007
60007 70007 T00830056 10144 20083 53008





000
SAUS45 KPIH 271152
MTRSNT
METAR KSNT 271151Z AUTO 34008KT 08/06 A3004 RMK AO1 SLP080 P0007
60007 70007 T00830056 10144 20083 53008





000
SAUS45 KPIH 271052
MTRSNT
METAR KSNT 271051Z AUTO 01007KT 11/03 A3000 RMK AO1 SLP058 T01110033





000
SAUS45 KPIH 270952
MTRSNT
METAR KSNT 270951Z AUTO 34003KT 11/03 A2998 RMK AO1 SLP053 T01110028





000
SAUS45 KPIH 270952
MTRSNT
METAR KSNT 270951Z AUTO 34003KT 11/03 A2998 RMK AO1 SLP053 T01110028





000
SAUS45 KPIH 270852
MTRSNT
METAR KSNT 270851Z AUTO 29003KT 12/03 A3001 RMK AO1 SLP057 T01170028
51000





000
SAUS45 KPIH 270752
MTRSNT
METAR KSNT 270751Z AUTO VRB03KT 12/03 A3001 RMK AO1 SLP059 T01220028





000
SAUS45 KPIH 270752
MTRSNT
METAR KSNT 270751Z AUTO VRB03KT 12/03 A3001 RMK AO1 SLP059 T01220028





000
SAUS45 KPIH 270652
MTRSNT
METAR KSNT 270651Z AUTO 00000KT 13/03 A3002 RMK AO1 SLP062 T01280028
402500011





000
SAUS45 KPIH 270552
MTRSNT
METAR KSNT 270551Z AUTO 35005KT 14/03 A3001 RMK AO1 SLP059 T01440033
10228 20144 53003





000
SAUS45 KPIH 270552
MTRSNT
METAR KSNT 270551Z AUTO 35005KT 14/03 A3001 RMK AO1 SLP059 T01440033
10228 20144 53003





000
SAUS45 KPIH 270452
MTRSNT
METAR KSNT 270451Z AUTO 31003KT 16/03 A3001 RMK AO1 SLP059 T01560028





000
SAUS45 KPIH 270352
MTRSNT
METAR KSNT 270351Z AUTO 00000KT 16/02 A3000 RMK AO1 SLP065 T01610022





000
SAUS45 KPIH 270252
MTRSNT
METAR KSNT 270251Z AUTO 03003KT 18/02 A3000 RMK AO1 SLP071 T01830017
56008





000
SAUS45 KPIH 270252
MTRSNT
METAR KSNT 270251Z AUTO 03003KT 18/02 A3000 RMK AO1 SLP071 T01830017
56008





000
SAUS45 KPIH 270152
MTRSNT
METAR KSNT 270151Z AUTO 29003KT 19/02 A3001 RMK AO1 SLP082 T01940017





000
SAUS45 KPIH 270052
MTRSNT
METAR KSNT 270051Z AUTO 31009G15KT 21/02 A3002 RMK AO1 SLP091
T02060017





000
SAUS45 KPIH 262352
MTRSNT
METAR KSNT 262351Z AUTO 23008G18KT 23/M02 A3003 RMK AO1 SLP089
T02281022 10250 20206 55005





000
SAUS45 KPIH 262252
MTRSNT
METAR KSNT 262251Z AUTO 28009G17KT 23/M01 A3002 RMK AO1 SLP086
T02281011





000
SAUS45 KPIH 262152
MTRSNT
METAR KSNT 262151Z AUTO 25007KT 190V280 23/M01 A3003 RMK AO1 SLP085
T02331006





000
SAUS45 KPIH 262052
MTRSNT
METAR KSNT 262051Z AUTO VRB06KT 24/M01 A3005 RMK AO1 SLP087
T02441006 58011





000
SAUS45 KPIH 261952
MTRSNT
METAR KSNT 261951Z AUTO VRB04KT 23/00 A3007 RMK AO1 SLP094 T02280000





000
SAUS45 KPIH 261852
MTRSNT
METAR KSNT 261851Z AUTO VRB04KT 22/01 A3008 RMK AO1 SLP094 T02220006





000
SAUS45 KPIH 261752
MTRSNT
METAR KSNT 261751Z AUTO VRB05KT 21/03 A3009 RMK AO1 SLP096 T02110028
10217 20011 56011





000
SAUS45 KPIH 261752
MTRSNT
METAR KSNT 261751Z AUTO VRB05KT 21/03 A3009 RMK AO1 SLP096 T02110028
10217 20011 56011





000
SAUS45 KPIH 261652
MTRSNT
METAR KSNT 261651Z AUTO 35005KT 19/03 A3009 RMK AO1 SLP101 T01940033





000
SAUS45 KPIH 261552
MTRSNT
METAR KSNT 261551Z AUTO 00000KT 14/03 A3011 RMK AO1 SLP116 T01440028





000
SAUS45 KPIH 261452
MTRSNT
METAR KSNT 261451Z AUTO 00000KT 11/02 A3012 RMK AO1 SLP115 T01060022
50002





000
SAUS45 KPIH 261352
MTRSNT
METAR KSNT 261351Z AUTO 00000KT 06/02 A3013 RMK AO1 SLP117 T00610017





000
SAUS45 KPIH 261352
MTRSNT
METAR KSNT 261351Z AUTO 00000KT 06/02 A3013 RMK AO1 SLP117 T00610017





000
SAUS45 KPIH 261252
MTRSNT
METAR KSNT 261251Z AUTO 00000KT 02/M01 A3013 RMK AO1 SLP124
T00221006





000
SAUS45 KPIH 261152
MTRSNT
METAR KSNT 261151Z AUTO 00000KT 02/M01 A3012 RMK AO1 SLP118
T00221006 10106 20017 51000





000
SAUS45 KPIH 261052
MTRSNT
METAR KSNT 261051Z AUTO 00000KT 03/M01 A3012 RMK AO1 SLP115
T00281006





000
SAUS45 KPIH 260952
MTRSNT
METAR KSNT 260951Z AUTO 00000KT 04/00 A3012 RMK AO1 SLP116 T00440000





000
SAUS45 KPIH 260852
MTRSNT
METAR KSNT 260851Z AUTO 17005KT 04/00 A3012 RMK AO1 SLP115 T00390000
58002





000
SAUS45 KPIH 260752
MTRSNT
METAR KSNT 260751Z AUTO 00000KT 06/01 A3012 RMK AO1 SLP110 T00610006





000
SAUS45 KPIH 260752
MTRSNT
METAR KSNT 260751Z AUTO 00000KT 06/01 A3012 RMK AO1 SLP110 T00610006





000
SAUS45 KPIH 260652
MTRSNT
METAR KSNT 260651Z AUTO 00000KT 09/01 A3012 RMK AO1 SLP107 T00890006
402500017





000
SAUS45 KPIH 260552
MTRSNT
METAR KSNT 260551Z AUTO 20003KT 10/01 A3012 RMK AO1 SLP114 T01000011
10244 20089 50000





000
SAUS45 KPIH 260452
MTRSNT
METAR KSNT 260451Z AUTO 00000KT 10/01 A3013 RMK AO1 SLP120 T01000011





000
SAUS45 KPIH 260352
MTRSNT
METAR KSNT 260351Z AUTO 16004KT 12/01 A3013 RMK AO1 SLP123 T01220011





000
SAUS45 KPIH 260252
MTRSNT
METAR KSNT 260251Z AUTO 21004KT 18/01 A3012 RMK AO1 SLP117 T01830006
56005





000
SAUS45 KPIH 260252
MTRSNT
METAR KSNT 260251Z AUTO 21004KT 18/01 A3012 RMK AO1 SLP117 T01830006
56005





000
SAUS45 KPIH 260152
MTRSNT
METAR KSNT 260151Z AUTO 27007KT 22/M02 A3013 RMK AO1 SLP119
T02221017





000
SAUS45 KPIH 260052
MTRSNT
METAR KSNT 260051Z AUTO VRB06G17KT 23/M02 A3014 RMK AO1 SLP126
T02331022





000
SAUS45 KPIH 252352
MTRSNT
METAR KSNT 252351Z AUTO 20007KT 24/M01 A3014 RMK AO1 SLP126
T02441006 10250 20194 56008





000
SAUS45 KPIH 252352
MTRSNT
METAR KSNT 252351Z AUTO 20007KT 24/M01 A3014 RMK AO1 SLP126
T02441006 10250 20194 56008





000
SAUS45 KPIH 252252
MTRSNT
METAR KSNT 252251Z AUTO 25/M01 A3015 RMK AO1 SLP125 T02501006





000
SAUS45 KPIH 252152
MTRSNT
METAR KSNT 252151Z AUTO 00000KT 23/01 A3016 RMK AO1 SLP133 T02330006





000
SAUS45 KPIH 252052
MTRSNT
METAR KSNT 252051Z AUTO 19009G17KT 130V240 23/01 A3017 RMK AO1
SLP129 T02330006 58008





000
SAUS45 KPIH 252052
MTRSNT
METAR KSNT 252051Z AUTO 19009G17KT 130V240 23/01 A3017 RMK AO1
SLP129 T02330006 58008





000
SAUS45 KPIH 251952
MTRSNT
METAR KSNT 251951Z AUTO VRB05KT 23/02 A3019 RMK AO1 SLP137 T02330017





000
SAUS45 KPIH 251852
MTRSNT
METAR KSNT 251851Z AUTO 17009G16KT 140V200 23/01 A3020 RMK AO1
SLP129 T02280011





000
SAUS45 KPIH 251852
MTRSNT
METAR KSNT 251851Z AUTO 17009G16KT 140V200 23/01 A3020 RMK AO1
SLP129 T02280011





000
SAUS45 KPIH 251752
MTRSNT
METAR KSNT 251751Z AUTO 00000KT 19/06 A3020 RMK AO1 SLP141 T01890061
10194 20017 56014





000
SAUS45 KPIH 251652
MTRSNT
METAR KSNT 251651Z AUTO VRB05KT 17/05 A3021 RMK AO1 SLP149 T01720050





000
SAUS45 KPIH 251652
MTRSNT
METAR KSNT 251651Z AUTO VRB05KT 17/05 A3021 RMK AO1 SLP149 T01720050





000
SAUS45 KPIH 251552
MTRSNT
METAR KSNT 251551Z AUTO 35003KT 13/04 A3023 RMK AO1 SLP157 T01330039





000
SAUS45 KPIH 251452
MTRSNT
METAR KSNT 251451Z AUTO 00000KT 09/03 A3025 RMK AO1 SLP162 T00940028
58001





000
SAUS45 KPIH 251352
MTRSNT
METAR KSNT 251351Z AUTO 00000KT 06/02 A3026 RMK AO1 SLP162 T00560022





000
SAUS45 KPIH 251252
MTRSNT
METAR KSNT 251251Z AUTO 00000KT 02/00 A3026 RMK AO1 SLP170 T00170000





000
SAUS45 KPIH 251252
MTRSNT
METAR KSNT 251251Z AUTO 00000KT 02/00 A3026 RMK AO1 SLP170 T00170000





000
SAUS45 KPIH 251152
MTRSNT
METAR KSNT 251151Z AUTO 00000KT 02/00 A3025 RMK AO1 SLP168 70005
T00220000 10106 20022 50002





000
SAUS45 KPIH 251152
MTRSNT
METAR KSNT 251151Z AUTO 00000KT 02/00 A3025 RMK AO1 SLP168 70005
T00220000 10106 20022 50002





000
SAUS45 KPIH 251052
MTRSNT
METAR KSNT 251051Z AUTO 00000KT 03/01 A3026 RMK AO1 SLP174 T00280006





    US Dept of Commerce
    National Oceanic and Atmospheric Administration
    National Weather Service
    1325 East West Highway
    Silver Spring, MD 20910
    Page Author: NWS Internet Services Team
Disclaimer
Information Quality
Credits
Glossary
Privacy Policy
Freedom of Information Act (FOIA)
About Us
Career Opportunities